createdAt,value
2018-12-24T08:05:20.087Z,9.60
2018-12-24T08:07:53.892Z,7.80
2018-12-24T08:10:27.393Z,10.00
2018-12-24T08:13:01.152Z,10.13
2018-12-24T08:15:34.570Z,8.30
2018-12-24T08:18:07.772Z,9.33
2018-12-24T08:20:41.491Z,9.53
2018-12-24T08:23:16.166Z,8.47
2018-12-24T08:25:49.809Z,8.93
2018-12-24T08:28:23.345Z,10.10
2018-12-24T08:30:56.954Z,6.23
2018-12-24T08:33:30.260Z,7.83
2018-12-24T08:36:04.053Z,6.83
2018-12-24T08:38:37.892Z,11.13
2018-12-24T08:41:11.627Z,8.40
2018-12-24T08:43:44.723Z,9.53
2018-12-24T08:46:18.281Z,9.27
2018-12-24T08:48:51.678Z,10.03
2018-12-24T08:51:25.382Z,12.80
2018-12-24T08:53:58.902Z,9.40
2018-12-24T08:56:32.724Z,10.80
2018-12-24T08:59:06.160Z,9.90
2018-12-24T09:01:39.697Z,8.23
2018-12-24T09:04:13.203Z,6.90
2018-12-24T09:06:46.984Z,11.10
2018-12-24T09:09:20.633Z,7.70
2018-12-24T09:11:53.991Z,12.67
2018-12-24T09:14:27.672Z,8.30
2018-12-24T09:17:00.921Z,12.60
2018-12-24T09:19:34.899Z,9.70
2018-12-24T09:22:08.592Z,11.40
2018-12-24T09:24:42.112Z,9.90
2018-12-24T09:27:15.777Z,12.13
2018-12-24T09:29:49.366Z,10.83
2018-12-24T09:32:23.124Z,12.17
2018-12-24T09:34:56.558Z,13.87
2018-12-24T09:37:30.191Z,14.57
2018-12-24T09:40:03.969Z,14.97
2018-12-24T09:42:37.934Z,13.40
2018-12-24T09:45:11.583Z,14.73
2018-12-24T09:47:45.261Z,17.40
2018-12-24T09:50:18.540Z,15.63
2018-12-24T09:52:51.773Z,16.37
2018-12-24T09:55:25.353Z,13.30
2018-12-24T09:57:58.600Z,11.93
2018-12-24T10:00:32.299Z,15.10
2018-12-24T10:03:16.137Z,15.50
2018-12-24T10:05:50.229Z,14.33
2018-12-24T10:08:25.615Z,11.50
2018-12-24T10:10:59.264Z,10.60
2018-12-24T10:13:32.523Z,13.60
2018-12-24T10:16:06.098Z,10.47
2018-12-24T10:18:39.795Z,11.73
2018-12-24T10:21:13.286Z,8.67
2018-12-24T10:23:46.593Z,11.30
2018-12-24T10:26:20.217Z,12.87
2018-12-24T10:28:53.922Z,11.27
2018-12-24T10:31:27.587Z,11.47
2018-12-24T10:34:00.927Z,8.33
2018-12-24T10:36:34.938Z,11.27
2018-12-24T10:39:10.025Z,10.90
2018-12-24T10:41:43.903Z,12.63
2018-12-24T10:44:17.547Z,13.33
2018-12-24T10:46:51.152Z,12.20
2018-12-24T10:49:24.426Z,10.90
2018-12-24T10:51:57.708Z,10.33
2018-12-24T10:54:30.690Z,13.20
2018-12-24T10:57:04.519Z,14.10
2018-12-24T10:59:38.247Z,13.80
2018-12-24T11:02:11.769Z,11.73
2018-12-24T11:04:45.376Z,11.17
2018-12-24T11:07:18.910Z,12.67
2018-12-24T11:09:53.849Z,12.27
2018-12-24T11:12:28.069Z,10.93
2018-12-24T11:15:01.663Z,9.73
2018-12-24T11:17:35.604Z,9.47
2018-12-24T11:20:09.225Z,13.63
2018-12-24T11:22:44.101Z,8.63
2018-12-24T11:25:16.915Z,10.10
2018-12-24T11:27:50.501Z,11.53
2018-12-24T11:30:24.138Z,10.43
2018-12-24T11:32:57.785Z,10.77
2018-12-24T11:35:31.432Z,11.60
2018-12-24T11:38:05.056Z,13.23
2018-12-24T11:40:38.399Z,12.20
2018-12-24T11:43:12.197Z,14.30
2018-12-24T11:45:45.945Z,14.53
2018-12-24T11:48:19.331Z,14.37
2018-12-24T11:50:52.883Z,11.50
2018-12-24T11:53:26.374Z,13.53
2018-12-24T11:56:00.009Z,12.17
2018-12-24T11:58:33.455Z,11.17
2018-12-24T12:01:07.269Z,13.57
2018-12-24T12:03:41.143Z,17.97
2018-12-24T12:06:19.671Z,11.17
2018-12-24T12:08:49.613Z,12.70
2018-12-24T12:11:23.014Z,14.03
2018-12-24T12:13:56.519Z,12.17
2018-12-24T12:16:31.792Z,13.80
2018-12-24T12:19:05.577Z,9.67
2018-12-24T12:21:39.307Z,15.73
2018-12-24T12:24:12.852Z,12.30
2018-12-24T12:26:46.211Z,11.50
2018-12-24T12:29:19.776Z,14.03
2018-12-24T12:31:53.381Z,14.07
2018-12-24T12:34:26.986Z,11.13
2018-12-24T12:37:00.582Z,13.60
2018-12-24T12:39:34.107Z,13.73
2018-12-24T12:42:07.661Z,14.67
2018-12-24T12:44:41.334Z,12.90
2018-12-24T12:47:14.603Z,12.70
2018-12-24T12:49:48.248Z,11.60
2018-12-24T12:52:21.946Z,15.10
2018-12-24T12:54:55.691Z,13.83
2018-12-24T12:57:30.013Z,12.10
2018-12-24T13:00:04.274Z,16.53
2018-12-24T13:02:37.959Z,12.77
2018-12-24T13:05:11.679Z,14.17
2018-12-24T13:07:45.264Z,12.67
2018-12-24T13:10:18.891Z,15.43
2018-12-24T13:12:52.641Z,12.30
2018-12-24T13:15:25.824Z,13.07
2018-12-24T13:17:59.354Z,14.70
2018-12-24T13:20:32.986Z,14.83
2018-12-24T13:23:06.745Z,18.87
2018-12-24T13:25:40.258Z,17.47
2018-12-24T13:28:13.999Z,17.40
2018-12-24T13:30:47.396Z,22.00
2018-12-24T13:33:21.079Z,20.37
2018-12-24T13:35:55.271Z,19.80
2018-12-24T13:38:28.311Z,23.47
2018-12-24T13:41:04.253Z,16.80
2018-12-24T13:43:37.995Z,21.20
2018-12-24T13:46:13.876Z,20.23
2018-12-24T13:48:50.656Z,19.73
2018-12-24T13:51:44.146Z,16.97
2018-12-24T13:54:27.873Z,18.23
2018-12-24T13:57:01.653Z,18.23
2018-12-24T14:28:35.393Z,15.40
2018-12-24T14:31:09.090Z,15.60
2018-12-24T14:33:43.940Z,14.43
2018-12-24T14:36:18.245Z,16.50
2018-12-24T14:38:51.727Z,19.27
2018-12-24T14:41:25.557Z,21.10
2018-12-24T14:43:59.268Z,16.93
2018-12-24T14:46:32.925Z,20.70
2018-12-24T14:49:06.582Z,18.67
2018-12-24T14:51:39.969Z,18.50
2018-12-24T14:54:13.325Z,19.37
2018-12-24T14:56:47.385Z,18.00
2018-12-24T14:59:21.046Z,19.63
2018-12-24T15:01:54.657Z,17.30
2018-12-24T15:04:27.922Z,16.37
2018-12-24T15:07:01.320Z,18.53
2018-12-24T15:09:34.667Z,14.67
2018-12-24T15:12:08.186Z,18.60
2018-12-24T15:14:41.952Z,20.20
2018-12-24T15:17:15.609Z,17.43
2018-12-24T15:19:49.246Z,16.70
2018-12-24T15:22:23.110Z,21.03
2018-12-24T18:42:12.196Z,20.07
2018-12-24T18:44:45.971Z,24.50
2018-12-24T18:47:19.719Z,26.03
2018-12-24T18:49:53.924Z,18.50
2018-12-24T18:52:27.360Z,18.53
2018-12-24T18:55:01.001Z,20.70
2018-12-24T18:57:34.559Z,16.07
2018-12-24T19:00:09.463Z,13.20
2018-12-24T19:02:43.270Z,14.50
2018-12-24T19:05:15.791Z,12.27
2018-12-24T19:07:48.940Z,13.03
2018-12-24T19:10:22.373Z,14.70
2018-12-24T19:12:56.506Z,13.40
2018-12-24T19:15:30.395Z,13.13
2018-12-24T19:18:04.617Z,10.77
2018-12-24T19:20:38.182Z,14.40
2018-12-24T19:23:12.013Z,12.37
2018-12-24T19:25:45.544Z,13.33
2018-12-24T19:28:19.301Z,15.27
2018-12-24T19:30:52.934Z,11.53
2018-12-24T19:33:26.286Z,10.60
2018-12-24T19:35:59.598Z,9.07
2018-12-24T19:38:33.371Z,11.07
2018-12-24T19:41:07.051Z,10.60
2018-12-24T19:43:41.017Z,10.37
2018-12-24T19:46:14.667Z,11.37
2018-12-24T19:48:48.359Z,12.37
2018-12-24T19:51:22.029Z,11.87
2018-12-24T19:53:55.826Z,12.73
2018-12-24T19:56:29.456Z,12.63
2018-12-24T19:59:03.159Z,14.30
2018-12-24T20:01:36.794Z,11.50
2018-12-24T20:04:10.515Z,10.43
2018-12-24T20:06:44.105Z,11.03
2018-12-24T20:09:17.818Z,11.60
2018-12-24T20:11:53.012Z,12.50
2018-12-24T20:14:26.707Z,14.53
2018-12-24T20:17:00.298Z,14.27
2018-12-24T20:19:34.136Z,16.87
2018-12-24T20:22:07.662Z,16.17
2018-12-24T20:24:41.174Z,17.83
2018-12-24T20:27:14.697Z,15.13
2018-12-24T20:29:48.348Z,16.37
2018-12-24T20:32:23.290Z,15.53
2018-12-24T20:34:59.300Z,17.73
2018-12-24T20:37:35.003Z,16.90
2018-12-24T20:40:07.634Z,16.30
2018-12-24T20:42:43.062Z,18.60
2018-12-24T20:45:17.176Z,16.00
2018-12-24T20:47:50.730Z,16.87
2018-12-24T20:50:24.217Z,13.77
2018-12-24T20:52:57.948Z,14.23
2018-12-24T20:55:31.602Z,19.13
2018-12-24T20:58:05.169Z,15.23
2018-12-24T21:00:38.511Z,13.17
2018-12-24T21:03:11.897Z,16.83
2018-12-24T21:05:45.278Z,15.27
2018-12-24T21:08:18.927Z,14.20
2018-12-24T21:10:53.461Z,20.80
2018-12-24T21:13:26.860Z,19.83
2018-12-24T21:16:00.578Z,15.53
2018-12-24T21:18:34.096Z,18.13
2018-12-24T21:21:07.553Z,19.17
2018-12-24T21:23:40.230Z,17.80
2018-12-24T21:26:13.955Z,16.87
2018-12-24T21:28:47.437Z,19.93
2018-12-24T21:31:22.342Z,17.13
2018-12-24T21:33:56.072Z,17.87
2018-12-24T21:36:29.770Z,21.97
2018-12-24T21:39:04.011Z,32.00
2018-12-24T21:41:38.420Z,53.87
2018-12-24T21:44:12.381Z,54.40
2018-12-24T21:46:46.771Z,54.43
2018-12-24T21:49:20.407Z,54.70
2018-12-24T21:51:54.074Z,59.60
2018-12-24T21:54:27.859Z,60.37
2018-12-24T21:57:02.227Z,55.80
2018-12-24T21:59:36.544Z,60.97
2018-12-24T22:02:09.530Z,56.43
2018-12-24T22:04:43.203Z,53.30
2018-12-24T22:07:16.893Z,50.60
2018-12-24T22:09:50.321Z,47.10
2018-12-24T22:12:23.935Z,42.93
2018-12-24T22:14:57.627Z,39.03
2018-12-24T22:17:31.220Z,42.13
2018-12-24T22:20:04.278Z,41.50
2018-12-24T22:22:38.860Z,42.13
2018-12-24T22:25:12.726Z,46.17
2018-12-24T22:27:46.425Z,48.10
2018-12-24T22:30:20.075Z,45.93
2018-12-24T22:32:53.858Z,44.93
2018-12-24T22:35:27.361Z,38.37
2018-12-24T22:38:01.090Z,40.80
2018-12-24T22:40:34.645Z,40.13
2018-12-24T22:43:08.332Z,51.00
2018-12-24T22:45:42.094Z,73.83
2018-12-24T22:48:15.791Z,78.97
2018-12-24T22:50:49.484Z,87.73
2018-12-24T22:53:23.051Z,93.43
2018-12-24T22:55:57.830Z,85.00
2018-12-24T22:58:31.216Z,90.83
2018-12-24T23:01:04.326Z,94.30
2018-12-24T23:03:37.818Z,92.37
2018-12-24T23:06:11.474Z,114.20
2018-12-24T23:08:45.473Z,114.87
2018-12-24T23:11:19.202Z,117.03
2018-12-24T23:13:53.090Z,120.47
2018-12-24T23:16:28.210Z,98.10
2018-12-24T23:19:04.787Z,109.67
2018-12-24T23:21:37.923Z,87.20
2018-12-24T23:24:11.601Z,97.33
2018-12-24T23:26:46.231Z,78.60
2018-12-24T23:29:20.300Z,68.00
2018-12-24T23:31:55.482Z,74.40
2018-12-24T23:34:28.897Z,59.57
2018-12-24T23:37:02.739Z,57.93
2018-12-24T23:39:36.444Z,61.70
2018-12-24T23:42:10.014Z,53.03
2018-12-24T23:44:43.839Z,50.93
2018-12-24T23:47:17.492Z,45.87
2018-12-24T23:49:52.257Z,47.30
2018-12-24T23:52:26.158Z,38.30
2018-12-24T23:55:01.863Z,41.87
2018-12-24T23:57:34.541Z,38.40
